createdAt,value
2018-07-23T02:14:09.089Z,44.00
2018-07-23T02:16:38.185Z,47.75
2018-07-23T02:19:07.257Z,34.40
2018-07-23T02:26:49.867Z,46.15
2018-07-23T02:29:20.873Z,38.87
2018-07-23T02:31:49.949Z,37.97
2018-07-23T02:34:19.990Z,36.53
2018-07-23T02:36:50.039Z,34.70
2018-07-23T02:39:19.110Z,34.70
2018-07-23T02:41:49.143Z,33.73
2018-07-23T02:44:19.110Z,33.73
2018-07-23T02:46:48.171Z,35.40
2018-07-23T02:51:53.030Z,46.80
2018-07-23T02:54:22.102Z,50.30
2018-07-23T02:56:51.182Z,37.20
2018-07-23T03:01:55.981Z,41.97
2018-07-23T03:04:25.051Z,46.67
2018-07-23T03:06:54.109Z,38.57
2018-07-23T03:09:23.178Z,35.83
2018-07-23T03:11:52.264Z,35.27
2018-07-23T03:14:21.394Z,36.50
2018-07-23T03:16:50.461Z,42.03
2018-07-23T03:21:55.451Z,41.63
2018-07-23T03:24:26.340Z,34.13
2018-07-23T03:26:55.433Z,32.33
2018-07-23T03:29:24.498Z,31.40
2018-07-23T03:32:02.957Z,32.27
2018-07-23T03:34:33.217Z,31.10
2018-07-23T03:37:02.290Z,30.10
2018-07-23T03:39:33.332Z,30.40
2018-07-23T03:42:10.013Z,31.97
2018-07-23T03:47:14.879Z,37.88
2018-07-23T03:49:43.989Z,39.72
2018-07-23T03:52:13.047Z,36.25
2018-07-23T03:54:42.737Z,30.97
2018-07-23T03:57:11.805Z,29.67
2018-07-23T03:59:45.229Z,30.53
2018-07-23T04:02:18.021Z,28.67
2018-07-23T04:04:47.128Z,27.27
2018-07-23T04:07:16.206Z,28.40
2018-07-23T04:09:45.294Z,27.60
2018-07-23T04:12:14.354Z,27.70
2018-07-23T04:14:43.515Z,35.20
2018-07-23T04:17:12.597Z,30.17
2018-07-23T04:19:41.785Z,27.33
2018-07-23T04:22:10.847Z,29.08
2018-07-23T04:24:39.930Z,24.63
2018-07-23T04:27:09.918Z,24.50
2018-07-23T04:29:38.986Z,23.47
2018-07-23T04:32:08.102Z,29.87
2018-07-23T04:34:38.245Z,30.00
2018-07-23T04:37:08.362Z,31.10
2018-07-23T04:39:37.426Z,31.30
2018-07-23T04:44:42.490Z,31.52
2018-07-23T04:47:12.579Z,30.90
2018-07-23T04:49:42.613Z,30.20
2018-07-23T04:52:12.646Z,31.27
2018-07-23T04:57:17.497Z,28.40
2018-07-23T05:02:22.357Z,27.48
2018-07-23T05:04:51.427Z,26.98
2018-07-23T05:07:20.498Z,24.33
2018-07-23T05:09:49.816Z,21.03
2018-07-23T05:12:18.856Z,19.50
2018-07-23T05:14:48.854Z,24.53
2018-07-23T05:17:17.925Z,21.40
2018-07-23T05:19:46.998Z,21.43
2018-07-23T05:22:16.072Z,26.30
2018-07-23T05:24:45.149Z,27.37
2018-07-23T05:27:15.120Z,27.07
2018-07-23T05:29:44.437Z,24.20
2018-07-23T05:32:13.509Z,24.90
2018-07-23T05:34:42.592Z,24.80
2018-07-23T05:39:47.495Z,31.20
2018-07-23T05:42:16.577Z,28.07
2018-07-23T05:44:46.033Z,26.87
2018-07-23T05:47:15.109Z,25.77
2018-07-23T05:52:19.677Z,35.33
2018-07-23T05:57:25.739Z,34.10
2018-07-23T05:59:54.849Z,38.93
2018-07-23T06:02:23.893Z,37.50
2018-07-23T06:04:52.963Z,37.50
2018-07-23T06:07:22.208Z,36.45
2018-07-23T06:09:51.267Z,29.20
2018-07-23T06:12:21.277Z,27.10
2018-07-23T06:14:50.438Z,27.83
2018-07-23T06:17:19.685Z,26.90
2018-07-23T06:22:25.664Z,39.45
2018-07-23T06:27:30.774Z,44.00
2018-07-23T06:29:59.903Z,49.00
2018-07-23T06:32:28.941Z,38.60
2018-07-23T06:34:58.325Z,33.63
2018-07-23T06:37:28.522Z,37.93
2018-07-23T06:39:57.581Z,31.80
2018-07-23T06:42:26.641Z,32.87
2018-07-23T06:44:56.074Z,31.13
2018-07-23T06:47:26.725Z,35.00
2018-07-23T06:49:56.799Z,30.50
2018-07-23T06:52:25.876Z,29.77
2018-07-23T06:54:55.427Z,30.27
2018-07-23T06:57:27.980Z,31.90
2018-07-23T06:59:57.057Z,32.03
2018-07-23T07:07:40.781Z,35.85
2018-07-23T07:10:15.092Z,39.13
2018-07-23T07:12:49.044Z,29.40
2018-07-23T07:15:22.924Z,30.83
2018-07-23T07:23:03.641Z,40.40
2018-07-23T07:25:32.963Z,32.40
2018-07-23T07:30:37.733Z,37.05
2018-07-23T07:33:06.989Z,30.10
2018-07-23T07:35:36.067Z,28.37
2018-07-23T07:38:05.197Z,28.87
2018-07-23T07:40:34.711Z,29.03
2018-07-23T07:43:03.775Z,28.57
2018-07-23T07:45:32.834Z,26.67
2018-07-23T07:48:01.930Z,28.57
2018-07-23T07:50:30.999Z,30.70
2018-07-23T07:53:00.981Z,30.15
2018-07-23T07:55:31.013Z,27.70
2018-07-23T07:58:00.250Z,26.83
2018-07-23T08:00:29.299Z,25.03
2018-07-23T08:02:58.365Z,27.20
2018-07-23T08:05:27.720Z,24.73
2018-07-23T08:07:58.392Z,24.90
2018-07-23T08:10:27.467Z,25.53
2018-07-23T08:15:32.332Z,27.02
2018-07-23T08:18:01.413Z,28.05
2018-07-23T08:23:06.283Z,28.20
2018-07-23T08:25:36.273Z,29.63
2018-07-23T08:28:05.521Z,26.67
2018-07-23T08:30:36.469Z,24.60
2018-07-23T08:33:06.551Z,22.70
2018-07-23T08:35:35.610Z,28.40
2018-07-23T08:40:40.472Z,26.98
2018-07-23T08:45:45.642Z,24.30
2018-07-23T08:48:14.795Z,24.83
2018-07-23T08:50:43.867Z,24.20
2018-07-23T08:53:13.133Z,24.37
2018-07-23T08:55:42.338Z,27.97
2018-07-23T08:58:11.383Z,25.03
2018-07-23T09:00:40.455Z,28.20
2018-07-23T09:03:09.878Z,26.60
2018-07-23T09:05:38.950Z,26.10
2018-07-23T09:08:08.024Z,27.85
2018-07-23T09:10:37.359Z,26.90
2018-07-23T09:13:06.426Z,27.40
2018-07-23T09:15:35.497Z,29.20
2018-07-23T09:18:04.588Z,30.08
2018-07-23T09:20:34.039Z,29.47
2018-07-23T09:23:03.090Z,28.20
2018-07-23T09:25:32.155Z,29.30
2018-07-23T09:28:01.586Z,28.10
2018-07-23T09:30:31.589Z,29.63
2018-07-23T09:33:06.191Z,32.67
2018-07-23T09:35:36.493Z,28.80
2018-07-23T09:38:07.490Z,29.20
2018-07-23T09:43:12.641Z,30.95
2018-07-23T09:45:41.787Z,32.05
2018-07-23T09:48:10.817Z,31.73
2018-07-23T09:50:40.243Z,29.40
2018-07-23T09:53:10.289Z,26.33
2018-07-23T09:55:40.354Z,28.83
2018-07-23T09:58:10.466Z,28.63
2018-07-23T10:03:15.419Z,28.75
2018-07-23T10:05:45.394Z,30.60
2018-07-23T10:08:14.504Z,29.00
2018-07-23T10:13:19.754Z,25.65
2018-07-23T10:15:49.785Z,24.67
2018-07-23T10:18:18.860Z,25.50
2018-07-23T10:20:47.934Z,24.77
2018-07-23T10:23:17.270Z,25.10
2018-07-23T10:25:46.332Z,24.58
2018-07-23T10:28:15.390Z,21.80
2018-07-23T10:30:44.725Z,24.20
2018-07-23T10:33:13.781Z,24.57
2018-07-23T10:38:18.561Z,24.00
2018-07-23T10:43:23.319Z,25.60
2018-07-23T10:45:53.333Z,27.40
2018-07-23T10:48:22.414Z,24.13
2018-07-23T10:50:52.697Z,24.23
2018-07-23T10:53:21.734Z,24.07
2018-07-23T10:55:51.755Z,23.73
2018-07-23T10:58:21.774Z,22.40
2018-07-23T11:00:50.994Z,22.40
2018-07-23T11:03:20.049Z,22.10
2018-07-23T11:05:49.113Z,24.50
2018-07-23T11:08:18.178Z,21.30
2018-07-23T11:10:47.249Z,20.93
2018-07-23T11:13:16.313Z,21.90
2018-07-23T11:15:45.565Z,20.20
2018-07-23T11:18:14.710Z,18.73
2018-07-23T11:20:43.780Z,19.33
2018-07-23T11:23:12.833Z,19.93
2018-07-23T11:28:17.739Z,22.10
2018-07-23T11:30:47.734Z,25.07
2018-07-23T11:33:17.050Z,22.43
2018-07-23T11:35:47.115Z,31.53
2018-07-23T11:38:16.184Z,24.10
2018-07-23T11:40:46.193Z,22.90
2018-07-23T11:43:15.325Z,22.70
2018-07-23T11:45:45.334Z,23.07
2018-07-23T11:48:14.381Z,21.33
2018-07-23T11:53:19.392Z,20.85
2018-07-23T11:55:48.557Z,21.50
2018-07-23T11:58:17.637Z,20.67
2018-07-23T12:00:46.739Z,19.03
2018-07-23T12:03:15.781Z,21.10
2018-07-23T12:05:45.136Z,21.98
2018-07-23T12:08:14.198Z,20.70
2018-07-23T12:10:45.214Z,20.07
2018-07-23T12:13:14.283Z,22.13
2018-07-23T12:15:43.501Z,20.57
2018-07-23T12:18:12.606Z,20.10
2018-07-23T12:20:42.669Z,21.40
2018-07-23T12:25:47.528Z,20.42
2018-07-23T12:28:16.939Z,18.83
2018-07-23T12:30:46.169Z,19.23
2018-07-23T12:33:15.209Z,19.55
2018-07-23T12:38:20.210Z,20.70
2018-07-23T12:40:49.260Z,18.37
2018-07-23T12:43:20.579Z,17.10
2018-07-23T12:45:49.628Z,17.67
2018-07-23T12:48:18.725Z,18.30
2018-07-23T12:50:47.885Z,16.33
2018-07-23T12:53:16.940Z,17.60
2018-07-23T12:55:46.026Z,16.80
2018-07-23T13:00:50.789Z,17.50
2018-07-23T13:03:19.849Z,17.63
2018-07-23T13:05:49.021Z,16.17
2018-07-23T13:08:18.173Z,16.43
2018-07-23T13:10:47.218Z,17.57
2018-07-23T13:13:16.599Z,18.50
2018-07-23T13:15:46.679Z,16.93
2018-07-23T13:18:15.768Z,17.45
2018-07-23T13:20:44.834Z,19.43
2018-07-23T13:23:14.251Z,19.20
2018-07-23T13:25:43.342Z,18.92
2018-07-23T13:28:12.387Z,18.65
2018-07-23T13:30:43.414Z,18.00
2018-07-23T13:33:14.822Z,18.93
2018-07-23T13:35:44.053Z,19.13
2018-07-23T13:38:16.556Z,18.37
2018-07-23T13:43:21.798Z,20.58
2018-07-23T13:45:50.883Z,21.33
2018-07-23T13:50:56.240Z,19.20
2018-07-23T13:53:32.431Z,19.98
2018-07-23T13:56:06.382Z,20.73
2018-07-23T13:58:35.424Z,19.50
2018-07-23T14:03:44.286Z,20.75
2018-07-23T14:06:15.323Z,23.20
2018-07-23T14:08:44.395Z,21.80
2018-07-23T14:11:13.440Z,18.87
2018-07-23T14:13:42.518Z,20.10
2018-07-23T14:16:12.674Z,21.30
2018-07-23T14:18:42.662Z,21.10
2018-07-23T14:21:13.185Z,18.83
2018-07-23T14:23:43.169Z,18.67
2018-07-23T14:26:12.255Z,30.10
2018-07-23T14:28:41.295Z,19.87
2018-07-23T14:31:10.723Z,17.50
2018-07-23T14:33:43.267Z,19.43
2018-07-23T14:36:12.451Z,18.47
2018-07-23T14:38:41.581Z,17.67
2018-07-23T14:41:10.565Z,17.37
2018-07-23T14:43:39.673Z,16.10
2018-07-23T14:46:08.721Z,17.50
2018-07-23T14:48:37.777Z,16.70
2018-07-23T14:51:07.128Z,17.10
2018-07-23T14:53:37.317Z,17.07
2018-07-23T14:56:06.381Z,18.07
2018-07-23T14:58:35.466Z,18.08
2018-07-23T15:03:40.314Z,18.48
2018-07-23T15:06:10.067Z,18.60
2018-07-23T15:11:15.590Z,18.77
2018-07-23T15:13:44.672Z,19.75
2018-07-23T15:18:52.857Z,19.50
2018-07-23T15:23:57.785Z,19.92
2018-07-23T15:26:30.334Z,18.90
2018-07-23T15:28:59.825Z,19.07
2018-07-23T15:31:28.906Z,20.00
2018-07-23T15:33:57.970Z,18.83
2018-07-23T15:36:31.337Z,21.23
2018-07-23T15:39:01.354Z,18.70
2018-07-23T15:41:30.610Z,20.10
2018-07-23T15:46:35.672Z,19.90
2018-07-23T15:49:04.725Z,20.77
2018-07-23T15:51:35.766Z,22.53
2018-07-23T15:54:04.849Z,20.20
2018-07-23T15:56:37.992Z,21.40
2018-07-23T15:59:07.049Z,18.40
2018-07-23T16:01:41.250Z,20.50
2018-07-23T16:09:22.669Z,21.80
2018-07-23T16:11:52.693Z,20.60
2018-07-23T16:16:57.673Z,18.90
2018-07-23T16:19:26.744Z,57.53
2018-07-23T16:22:00.364Z,21.48
2018-07-23T16:24:29.465Z,19.80
2018-07-23T16:27:00.511Z,19.07
2018-07-23T16:29:29.689Z,19.10
2018-07-23T16:34:34.588Z,19.27
2018-07-23T16:39:39.208Z,20.60
2018-07-23T16:42:08.536Z,20.80
2018-07-23T16:44:39.765Z,19.30
2018-07-23T16:47:08.809Z,19.67
2018-07-23T16:49:38.884Z,19.45
2018-07-23T16:52:17.436Z,20.03
2018-07-23T16:54:48.726Z,16.50
2018-07-23T16:57:17.773Z,17.62
2018-07-23T16:59:48.833Z,18.43
2018-07-23T17:02:17.857Z,20.07
2018-07-23T17:04:47.368Z,20.37
2018-07-23T17:07:16.440Z,17.10
2018-07-23T17:09:48.695Z,18.97
2018-07-23T17:12:17.796Z,19.87
2018-07-23T17:14:47.886Z,20.27
2018-07-23T17:17:16.960Z,19.17
2018-07-23T17:19:46.037Z,19.43
2018-07-23T17:24:52.113Z,19.65
2018-07-23T17:27:23.088Z,21.13
2018-07-23T17:29:53.124Z,19.53
2018-07-23T17:32:23.188Z,19.50
2018-07-23T17:34:52.261Z,19.23
2018-07-23T17:37:23.504Z,19.67
2018-07-23T17:39:54.540Z,20.67
2018-07-23T17:42:33.979Z,20.47
2018-07-23T17:45:04.089Z,20.53
2018-07-23T17:47:33.091Z,20.77
2018-07-23T17:52:39.506Z,21.40
2018-07-23T17:55:08.646Z,21.40
2018-07-23T17:57:37.749Z,21.93
2018-07-23T18:00:07.984Z,28.13
2018-07-23T18:02:45.953Z,21.63
2018-07-23T18:05:16.070Z,22.20
2018-07-23T18:07:46.205Z,20.93
2018-07-23T18:10:17.333Z,22.13
2018-07-23T18:12:46.409Z,20.87
2018-07-23T18:15:16.417Z,21.87
2018-07-23T18:20:21.301Z,23.10
2018-07-23T18:22:54.569Z,22.50
2018-07-23T18:30:35.195Z,23.05
2018-07-23T18:33:04.274Z,25.23
2018-07-23T18:38:09.193Z,23.00
2018-07-23T18:40:38.235Z,26.05
2018-07-23T18:43:07.346Z,41.90
2018-07-23T18:45:38.388Z,33.50
2018-07-23T18:48:07.450Z,32.47
2018-07-23T18:50:36.501Z,29.80
2018-07-23T18:53:06.581Z,32.87
2018-07-23T18:55:35.661Z,32.43
2018-07-23T18:58:06.733Z,31.33
2018-07-23T19:05:47.365Z,35.83
2018-07-23T19:08:20.316Z,30.33
2018-07-23T19:10:50.345Z,24.77
2018-07-23T19:13:24.049Z,23.27
2018-07-23T19:15:57.793Z,23.63
2018-07-23T19:18:28.806Z,25.40
2018-07-23T19:26:11.686Z,36.03
2018-07-23T19:28:41.691Z,34.50
2018-07-23T19:31:12.759Z,30.37
2018-07-23T19:33:41.819Z,28.27
2018-07-23T19:36:12.859Z,29.27
2018-07-23T19:38:41.937Z,29.67
2018-07-23T19:43:46.741Z,36.80
2018-07-23T19:46:15.803Z,34.17
2018-07-23T19:48:46.852Z,32.17
2018-07-23T19:51:15.927Z,34.00
2018-07-23T19:56:20.761Z,40.72
2018-07-23T19:58:58.094Z,35.80
2018-07-23T20:01:29.132Z,38.63
2018-07-23T20:04:00.110Z,34.40
2018-07-23T20:06:32.773Z,34.30
2018-07-23T20:11:37.628Z,45.10
2018-07-23T20:14:08.697Z,39.17
2018-07-23T20:16:37.758Z,34.93
2018-07-23T20:19:10.534Z,40.13
2018-07-23T20:21:50.693Z,37.83
2018-07-23T20:24:19.789Z,37.47
2018-07-23T20:26:48.845Z,36.30
2018-07-23T20:29:17.921Z,35.27
2018-07-23T20:31:47.900Z,46.17
2018-07-23T20:34:16.976Z,38.23
2018-07-23T20:36:46.047Z,37.00
2018-07-23T20:39:15.114Z,36.23
2018-07-23T20:44:20.007Z,52.53
2018-07-23T20:46:49.049Z,42.67
2018-07-23T20:49:18.115Z,40.90
2018-07-23T20:51:47.174Z,40.30
2018-07-23T20:54:20.353Z,52.38
2018-07-23T20:59:26.231Z,53.40
2018-07-23T21:02:00.034Z,45.53
2018-07-23T21:04:31.099Z,44.20
2018-07-23T21:12:11.828Z,50.90
2018-07-23T21:14:40.892Z,39.23
2018-07-23T21:22:27.306Z,41.58
2018-07-23T21:25:02.374Z,34.43
2018-07-23T21:27:31.391Z,33.33
2018-07-23T21:30:00.459Z,33.70
2018-07-23T21:32:37.125Z,40.97
2018-07-23T21:35:19.805Z,34.53
2018-07-23T21:40:24.612Z,42.60
2018-07-23T21:42:53.748Z,42.72
2018-07-23T21:45:22.877Z,36.20
2018-07-23T21:47:51.960Z,33.23
2018-07-23T21:52:56.746Z,42.22
2018-07-23T21:58:01.598Z,42.20
2018-07-23T22:00:30.714Z,40.90
2018-07-23T22:05:40.039Z,40.83
2018-07-23T22:13:20.693Z,45.35
2018-07-23T22:15:49.797Z,41.07
2018-07-23T22:18:18.890Z,38.87
2018-07-23T22:20:47.961Z,39.37
2018-07-23T22:23:17.048Z,47.28
2018-07-23T22:25:47.080Z,40.73
2018-07-23T22:30:51.933Z,48.97
2018-07-23T22:33:26.225Z,49.42
2018-07-23T22:35:56.253Z,42.77
2018-07-23T22:38:27.299Z,40.37
2018-07-23T22:41:01.625Z,40.47
2018-07-23T22:43:30.707Z,38.00
2018-07-23T22:45:59.789Z,38.40
2018-07-23T22:51:04.590Z,51.67
2018-07-23T22:53:33.659Z,41.03
2018-07-23T22:56:06.348Z,39.50
2018-07-23T22:58:37.407Z,39.23
2018-07-23T23:01:10.190Z,38.93
2018-07-23T23:06:15.044Z,39.78
2018-07-23T23:08:44.117Z,42.88
2018-07-23T23:11:14.129Z,39.67
2018-07-23T23:13:43.201Z,35.27
2018-07-23T23:16:15.705Z,32.90
2018-07-23T23:18:44.845Z,34.57
2018-07-23T23:21:19.230Z,34.93
2018-07-23T23:23:48.312Z,35.73
2018-07-23T23:26:17.378Z,37.20
2018-07-23T23:28:50.948Z,42.77
2018-07-23T23:33:56.309Z,43.92
2018-07-23T23:36:25.441Z,46.88
2018-07-23T23:38:54.526Z,37.07
2018-07-23T23:43:59.375Z,42.90
2018-07-23T23:46:28.446Z,45.58
2018-07-23T23:48:57.507Z,35.20
2018-07-23T23:51:26.585Z,34.40
2018-07-23T23:53:55.668Z,40.30
2018-07-23T23:56:26.697Z,35.07
2018-07-23T23:58:55.769Z,33.93
